sim
Sign-in with your pilot id or email,
or register
Callsign
Passwort

Schedule Details

Flight Number: DLH1899 (2)
Departure: Turin Caselle Airport (LIMF) at 17:05
Arrival: Munich Airport (EDDM) at 18:15
Route: Lufthansa Passenger Schedule. Enter filed route here before submitting Pirep.

Weather Information
Getting current METAR information for LIMF 261650Z 25006KT 220V290 CAVOK 17/M04 Q0999
Getting current METAR information for EDDM 261650Z 25021KT 9999 -RA SCT023 OVC029 07/04 Q1000 NOSIG

Schedule Frequency

Route Map